9AIR NZWN-YMML
Flight info
| Callsign | 9AIR |
|---|---|
| Flight time | N/A |
| Altitude | 35000 |
| Route | UPLU2P/34 GOPLU M625 MILLA P753 WAREN WARE8M |
| Aircraft | B38M/M-SDE1FGHILORVWXY/HB1 |
Departure
| Time | 2026-04-28 06:41 |
|---|---|
| Airport | Wellington International Airport (NZWN) |
Arrival
| Time | N/A |
|---|---|
| Airport | Melbourne Airport (YMML) |
| Time | Latitude | Longitude | Altitude | Speed | Heading |
|---|---|---|---|---|---|
| 2026-04-28 05:35 | -41.32858 | 174.81006 | 19 ft | 0 kts | 47° |
| 2026-04-28 06:05 | -41.32860 | 174.81003 | 20 ft | 2 kts | 47° |
| 2026-04-28 06:05 | -41.32870 | 174.80987 | 18 ft | 2 kts | 47° |
| 2026-04-28 06:05 | -41.32881 | 174.80971 | 17 ft | 2 kts | 47° |
| 2026-04-28 06:06 | -41.32892 | 174.80955 | 20 ft | 2 kts | 76° |
| 2026-04-28 06:06 | -41.32891 | 174.80934 | 20 ft | 2 kts | 136° |
| 2026-04-28 06:06 | -41.32899 | 174.80941 | 19 ft | 4 kts | 145° |
| 2026-04-28 06:06 | -41.32902 | 174.80944 | 19 ft | 0 kts | 147° |
| 2026-04-28 06:32 | -41.32905 | 174.80946 | 19 ft | 0 kts | 147° |
| 2026-04-28 06:33 | -41.32910 | 174.80948 | 18 ft | 1 kts | 163° |
| 2026-04-28 06:33 | -41.32911 | 174.80948 | 18 ft | 0 kts | 167° |
| 2026-04-28 06:33 | -41.32920 | 174.80943 | 17 ft | 2 kts | 212° |
| 2026-04-28 06:33 | -41.32922 | 174.80940 | 17 ft | 0 kts | 226° |
| 2026-04-28 06:34 | -41.32923 | 174.80924 | 18 ft | 1 kts | 271° |
| 2026-04-28 06:34 | -41.32923 | 174.80923 | 18 ft | 0 kts | 274° |
| 2026-04-28 06:34 | -41.32943 | 174.80887 | 17 ft | 6 kts | 214° |
| 2026-04-28 06:34 | -41.32992 | 174.80872 | 18 ft | 14 kts | 185° |
| 2026-04-28 06:35 | -41.33089 | 174.80868 | 21 ft | 0 kts | 177° |
| 2026-04-28 06:36 | -41.33090 | 174.80868 | 20 ft | 2 kts | 181° |
| 2026-04-28 06:36 | -41.33100 | 174.80830 | 20 ft | 5 kts | 269° |
| 2026-04-28 06:37 | -41.33109 | 174.80804 | 22 ft | 1 kts | 226° |
| 2026-04-28 06:37 | -41.33125 | 174.80792 | 20 ft | 8 kts | 201° |
| 2026-04-28 06:37 | -41.33187 | 174.80785 | 19 ft | 7 kts | 185° |
| 2026-04-28 06:37 | -41.33223 | 174.80782 | 22 ft | 8 kts | 182° |
| 2026-04-28 06:38 | -41.33335 | 174.80775 | 20 ft | 22 kts | 182° |
| 2026-04-28 06:38 | -41.33473 | 174.80768 | 17 ft | 15 kts | 188° |
| 2026-04-28 06:38 | -41.33487 | 174.80761 | 18 ft | 0 kts | 209° |
| 2026-04-28 06:38 | -41.33515 | 174.80716 | 16 ft | 10 kts | 243° |
| 2026-04-28 06:39 | -41.33522 | 174.80680 | 13 ft | 0 kts | 270° |
| 2026-04-28 06:40 | -41.33516 | 174.80654 | 13 ft | 6 kts | 301° |
| 2026-04-28 06:40 | -41.33416 | 174.80636 | 17 ft | 41 kts | 2° |
| 2026-04-28 06:41 | -41.32883 | 174.80674 | 21 ft | 110 kts | 3° |
| 2026-04-28 06:41 | -41.31923 | 174.80738 | 30 ft | 163 kts | 2° |
| 2026-04-28 06:41 | -41.30863 | 174.80820 | 781 ft | 142 kts | 5° |
| 2026-04-28 06:41 | -41.29898 | 174.80879 | 1240 ft | 138 kts | 2° |
| 2026-04-28 06:42 | -41.28907 | 174.80921 | 1535 ft | 147 kts | 1° |
| 2026-04-28 06:42 | -41.27772 | 174.80962 | 1541 ft | 178 kts | 1° |
| 2026-04-28 06:42 | -41.26453 | 174.81025 | 1574 ft | 201 kts | 2° |
| 2026-04-28 06:42 | -41.25027 | 174.80940 | 1613 ft | 217 kts | 349° |
| 2026-04-28 06:43 | -41.23550 | 174.80341 | 1632 ft | 228 kts | 331° |
| 2026-04-28 06:43 | -41.22325 | 174.78955 | 1735 ft | 230 kts | 318° |
| 2026-04-28 06:43 | -41.21268 | 174.77657 | 2831 ft | 185 kts | 334° |
| 2026-04-28 06:43 | -41.20227 | 174.77051 | 3729 ft | 149 kts | 347° |
| 2026-04-28 06:44 | -41.19312 | 174.76500 | 4139 ft | 145 kts | 347° |
| 2026-04-28 06:44 | -41.18408 | 174.75732 | 3560 ft | 191 kts | 302° |
| 2026-04-28 06:44 | -41.17587 | 174.73891 | 2578 ft | 246 kts | 302° |
| 2026-04-28 06:44 | -41.17162 | 174.71741 | 2735 ft | 236 kts | 277° |